createdAt,value
2023-03-11T00:00:47.421Z,97699.16
2023-03-11T00:03:18.501Z,97694.88
2023-03-11T00:05:47.726Z,97694.53
2023-03-11T00:08:19.167Z,97700.34
2023-03-11T00:10:48.826Z,97688.00
2023-03-11T00:13:18.287Z,97691.91
2023-03-11T00:15:50.001Z,97673.00
2023-03-11T00:18:19.631Z,97663.25
2023-03-11T00:20:48.322Z,97652.50
2023-03-11T00:23:17.298Z,97654.47
2023-03-11T00:25:48.001Z,97660.59
2023-03-11T00:28:17.103Z,97642.41
2023-03-11T00:30:46.839Z,97648.22
2023-03-11T00:33:17.318Z,97633.09
2023-03-11T00:35:46.802Z,97611.84
2023-03-11T00:38:17.450Z,97608.88
2023-03-11T00:40:47.276Z,97607.31
2023-03-11T00:43:16.295Z,97603.88
2023-03-11T00:45:45.420Z,97605.38
2023-03-11T00:48:15.284Z,97590.88
2023-03-11T00:50:43.987Z,97583.25
2023-03-11T00:53:13.779Z,97579.44
2023-03-11T00:55:42.056Z,97572.81
2023-03-11T00:58:11.988Z,97592.97
2023-03-11T01:00:40.811Z,97592.53
2023-03-11T01:03:09.214Z,97575.44
2023-03-11T01:05:37.310Z,97571.63
2023-03-11T01:08:06.002Z,97560.53
2023-03-11T01:10:36.382Z,97558.63
2023-03-11T01:13:05.100Z,97551.22
2023-03-11T01:15:35.908Z,97539.22
2023-03-11T01:18:04.629Z,97535.41
2023-03-11T01:20:32.768Z,97546.47
2023-03-11T01:23:00.912Z,97554.94
2023-03-11T01:25:29.132Z,97552.94
2023-03-11T01:27:58.859Z,97545.66
2023-03-11T01:30:28.169Z,97519.41
2023-03-11T01:32:58.526Z,97546.50
2023-03-11T01:35:28.510Z,97535.66
2023-03-11T01:37:56.881Z,97530.56
2023-03-11T01:40:29.989Z,97553.38
2023-03-11T01:43:00.455Z,97547.13
2023-03-11T01:45:40.866Z,97550.78
2023-03-11T01:48:10.157Z,97541.16
2023-03-11T01:50:42.885Z,97535.41
2023-03-11T01:53:12.443Z,97529.56
2023-03-11T01:55:40.928Z,97520.75
2023-03-11T01:58:15.873Z,97530.75
2023-03-11T02:00:44.984Z,97523.00
2023-03-11T02:03:18.736Z,97531.53
2023-03-11T02:05:48.847Z,97510.88
2023-03-11T02:08:17.044Z,97489.28
2023-03-11T02:10:45.889Z,97488.53
2023-03-11T02:13:16.598Z,97491.28
2023-03-11T02:15:45.527Z,97499.03
2023-03-11T02:18:18.686Z,97507.97
2023-03-11T02:20:56.863Z,97520.25
2023-03-11T02:23:31.298Z,97532.47
2023-03-11T02:26:05.613Z,97578.56
2023-03-11T02:28:38.298Z,97582.91
2023-03-11T02:31:06.505Z,97580.69
2023-03-11T02:33:37.986Z,97597.03
2023-03-11T02:36:07.162Z,97586.28
2023-03-11T02:38:35.342Z,97601.72
2023-03-11T02:41:04.293Z,97586.31
2023-03-11T02:43:39.054Z,97593.72
2023-03-11T02:46:10.238Z,97579.00
2023-03-11T02:48:39.467Z,97576.28
2023-03-11T02:51:07.817Z,97582.84
2023-03-11T02:53:42.125Z,97587.16
2023-03-11T02:56:10.503Z,97574.44
2023-03-11T02:58:40.208Z,97559.72
2023-03-11T03:01:08.458Z,97537.31
2023-03-11T03:03:36.791Z,97521.03
2023-03-11T03:06:05.292Z,97509.81
2023-03-11T03:08:33.584Z,97513.97
2023-03-11T03:11:01.784Z,97488.41
2023-03-11T03:13:31.492Z,97469.06
2023-03-11T03:16:01.624Z,97479.56
2023-03-11T03:18:30.160Z,97478.72
2023-03-11T03:20:58.548Z,97476.34
2023-03-11T03:23:26.758Z,97463.56
2023-03-11T03:25:55.104Z,97472.88
2023-03-11T03:28:23.193Z,97479.06
2023-03-11T03:30:51.299Z,97475.63
2023-03-11T03:33:20.891Z,97474.94
2023-03-11T03:35:50.407Z,97468.31
2023-03-11T03:38:18.730Z,97479.91
2023-03-11T03:40:50.081Z,97493.09
2023-03-11T03:43:19.097Z,97476.03
2023-03-11T03:45:47.330Z,97476.09
2023-03-11T03:48:15.602Z,97479.91
2023-03-11T03:50:45.237Z,97485.31
2023-03-11T03:53:13.527Z,97485.28
2023-03-11T03:55:41.788Z,97492.22
2023-03-11T03:58:10.120Z,97496.94
2023-03-11T04:00:38.801Z,97510.47
2023-03-11T04:03:07.506Z,97520.19
2023-03-11T04:05:36.658Z,97531.44
2023-03-11T04:08:06.361Z,97541.47
2023-03-11T04:10:34.644Z,97552.69
2023-03-11T04:13:02.801Z,97558.81
2023-03-11T04:15:30.992Z,97557.72
2023-03-11T04:17:59.140Z,97564.34
2023-03-11T04:20:27.479Z,97575.06
2023-03-11T04:22:55.660Z,97582.03
2023-03-11T04:25:25.226Z,97585.94
2023-03-11T04:27:55.169Z,97586.75
2023-03-11T04:30:23.632Z,97587.50
2023-03-11T04:32:51.914Z,97605.28
2023-03-11T04:35:20.120Z,97614.88
2023-03-11T04:37:48.857Z,97625.72
2023-03-11T04:40:17.349Z,97613.38
2023-03-11T04:42:47.046Z,97606.78
2023-03-11T04:45:18.572Z,97609.47
2023-03-11T04:47:49.619Z,97606.78
2023-03-11T04:50:19.257Z,97611.41
2023-03-11T04:52:48.033Z,97609.03
2023-03-11T04:55:17.264Z,97614.03
2023-03-11T04:57:47.276Z,97607.78
2023-03-11T05:00:20.172Z,97609.31
2023-03-11T05:02:48.327Z,97603.59
2023-03-11T05:05:16.590Z,97607.09
2023-03-11T05:07:44.860Z,97603.56
2023-03-11T05:10:13.828Z,97613.63
2023-03-11T05:12:42.048Z,97615.94
2023-03-11T05:15:12.566Z,97620.59
2023-03-11T05:17:40.623Z,97618.97
2023-03-11T05:20:09.918Z,97611.50
2023-03-11T05:22:38.743Z,97617.69
2023-03-11T05:25:08.003Z,97611.13
2023-03-11T05:27:36.109Z,97616.19
2023-03-11T05:30:04.748Z,97621.13
2023-03-11T05:32:34.278Z,97608.84
2023-03-11T05:35:02.434Z,97609.59
2023-03-11T05:37:33.186Z,97631.94
2023-03-11T05:40:01.258Z,97601.28
2023-03-11T05:42:29.768Z,97617.16
2023-03-11T05:44:58.223Z,97602.09
2023-03-11T05:47:26.473Z,97612.47
2023-03-11T05:49:57.144Z,97603.28
2023-03-11T05:52:25.789Z,97602.44
2023-03-11T05:54:54.569Z,97605.44
2023-03-11T05:57:22.766Z,97612.72
2023-03-11T05:59:51.457Z,97604.78
2023-03-11T06:02:21.526Z,97597.94
2023-03-11T06:04:50.367Z,97600.88
2023-03-11T06:07:19.933Z,97596.03
2023-03-11T06:09:48.098Z,97591.97
2023-03-11T06:12:16.288Z,97578.97
2023-03-11T06:14:44.426Z,97586.78
2023-03-11T06:17:12.908Z,97577.50
2023-03-11T06:19:41.121Z,97576.59
2023-03-11T06:22:09.263Z,97571.53
2023-03-11T06:24:38.881Z,97566.31
2023-03-11T06:27:07.133Z,97572.31
2023-03-11T06:29:35.252Z,97573.72
2023-03-11T06:32:03.532Z,97566.50
2023-03-11T06:34:31.656Z,97573.44
2023-03-11T06:37:01.413Z,97567.16
2023-03-11T06:39:29.616Z,97577.56
2023-03-11T06:42:01.703Z,97574.13
2023-03-11T06:44:29.947Z,97576.06
2023-03-11T06:46:58.221Z,97573.03
2023-03-11T06:49:26.485Z,97582.25
2023-03-11T06:51:55.995Z,97582.88
2023-03-11T06:54:24.322Z,97568.72
2023-03-11T06:56:52.522Z,97574.13
2023-03-11T06:59:22.978Z,97576.53
2023-03-11T07:01:52.096Z,97564.72
2023-03-11T07:04:20.332Z,97563.09
2023-03-11T07:06:48.983Z,97564.56
2023-03-11T07:09:17.488Z,97574.25
2023-03-11T07:11:45.968Z,97563.38
2023-03-11T07:14:14.360Z,97572.06
2023-03-11T07:16:44.122Z,97564.59
2023-03-11T07:19:13.451Z,97567.63
2023-03-11T07:21:41.849Z,97568.50
2023-03-11T07:24:13.877Z,97565.47
2023-03-11T07:26:44.365Z,97566.50
2023-03-11T07:29:12.764Z,97566.22
2023-03-11T07:31:41.445Z,97563.38
2023-03-11T07:34:14.231Z,97560.03
2023-03-11T07:36:43.591Z,97562.66
2023-03-11T07:39:15.039Z,97566.91
2023-03-11T07:41:43.247Z,97571.19
2023-03-11T07:44:14.100Z,97566.25
2023-03-11T07:46:42.702Z,97567.28
2023-03-11T07:49:12.766Z,97562.41
2023-03-11T07:51:43.899Z,97571.03
2023-03-11T07:54:15.354Z,97565.56
2023-03-11T07:56:43.737Z,97564.75
2023-03-11T07:59:11.987Z,97564.63
2023-03-11T08:01:41.516Z,97557.66
2023-03-11T08:04:14.345Z,97552.75
2023-03-11T08:06:44.423Z,97559.78
2023-03-11T08:09:13.228Z,97549.84
2023-03-11T08:11:41.680Z,97557.00
2023-03-11T08:14:09.992Z,97557.47
2023-03-11T08:16:40.712Z,97546.78
2023-03-11T08:19:09.186Z,97545.72
2023-03-11T08:21:39.761Z,97558.06
2023-03-11T08:24:09.012Z,97550.31
2023-03-11T08:26:37.262Z,97545.50
2023-03-11T08:29:06.322Z,97545.94
2023-03-11T08:31:36.292Z,97550.66
2023-03-11T08:34:07.638Z,97551.41
2023-03-11T08:36:36.379Z,97536.31
2023-03-11T08:39:06.379Z,97546.38
2023-03-11T08:41:35.644Z,97553.69
2023-03-11T08:44:03.864Z,97543.84
2023-03-11T08:46:33.851Z,97543.50
2023-03-11T08:49:03.281Z,97542.63
2023-03-11T08:51:33.866Z,97542.38
2023-03-11T08:54:02.795Z,97552.56
2023-03-11T08:56:32.700Z,97540.81
2023-03-11T08:59:00.976Z,97554.00
2023-03-11T09:01:29.753Z,97544.78
2023-03-11T09:03:57.901Z,97551.13
2023-03-11T09:06:26.166Z,97542.91
2023-03-11T09:08:54.422Z,97533.97
2023-03-11T09:11:23.011Z,97529.91
2023-03-11T09:13:53.078Z,97529.13
2023-03-11T09:16:24.195Z,97519.88
2023-03-11T09:18:52.956Z,97519.47
2023-03-11T09:21:23.887Z,97511.66
2023-03-11T09:23:52.106Z,97511.19
2023-03-11T09:26:20.361Z,97503.81
2023-03-11T09:28:49.470Z,97491.81
2023-03-11T09:31:21.761Z,97482.50
2023-03-11T09:33:53.034Z,97480.19
2023-03-11T09:36:22.600Z,97481.50
2023-03-11T09:38:50.747Z,97483.03
2023-03-11T09:41:40.005Z,97485.31
2023-03-11T09:44:19.691Z,97486.81
2023-03-11T09:47:04.958Z,97486.91
2023-03-11T09:49:43.882Z,97482.75
2023-03-11T09:52:14.035Z,97480.38
2023-03-11T09:54:46.728Z,97476.84
2023-03-11T09:57:20.835Z,97477.16
2023-03-11T09:59:49.974Z,97475.34
2023-03-11T10:02:22.739Z,97479.75
2023-03-11T10:04:57.287Z,97472.34
2023-03-11T10:07:29.842Z,97480.91
2023-03-11T10:09:59.909Z,97478.75
2023-03-11T10:12:46.222Z,97471.41
2023-03-11T10:15:22.239Z,97471.41
2023-03-11T10:18:29.739Z,97483.13
2023-03-11T10:21:02.130Z,97483.47
2023-03-11T10:23:38.794Z,97484.25
2023-03-11T10:26:14.824Z,97472.09
2023-03-11T10:28:48.599Z,97477.47
2023-03-11T10:31:23.668Z,97478.75
2023-03-11T10:33:57.876Z,97470.91
2023-03-11T10:36:31.996Z,97469.41
2023-03-11T10:39:02.539Z,97473.41
2023-03-11T10:41:44.429Z,97468.59
2023-03-11T10:44:16.682Z,97465.22
2023-03-11T10:46:45.268Z,97469.13
2023-03-11T10:49:16.499Z,97462.34
2023-03-11T10:51:48.937Z,97460.13
2023-03-11T10:54:26.644Z,97456.97
2023-03-11T10:56:58.756Z,97446.78
2023-03-11T10:59:30.288Z,97452.53
2023-03-11T11:02:01.124Z,97453.47
2023-03-11T11:04:37.601Z,97447.16
2023-03-11T11:07:30.483Z,97451.38
2023-03-11T11:10:21.227Z,97446.88
2023-03-11T11:12:59.086Z,97440.94
2023-03-11T11:15:29.916Z,97432.28
2023-03-11T11:18:01.188Z,97430.13
2023-03-11T11:20:32.654Z,97423.31
2023-03-11T11:23:02.892Z,97423.53
2023-03-11T11:25:35.563Z,97431.97
2023-03-11T11:28:06.522Z,97432.88
2023-03-11T11:30:35.569Z,97419.44
2023-03-11T11:33:24.522Z,97417.00
2023-03-11T11:35:57.328Z,97411.97
2023-03-11T11:38:29.108Z,97411.81
2023-03-11T11:41:00.801Z,97412.75
2023-03-11T11:43:43.096Z,97416.25
2023-03-11T11:46:21.552Z,97413.66
2023-03-11T11:48:58.643Z,97410.63
2023-03-11T11:51:34.607Z,97402.84
2023-03-11T11:54:10.277Z,97408.66
2023-03-11T11:56:42.211Z,97403.00
2023-03-11T11:59:17.670Z,97402.84
2023-03-11T12:01:57.174Z,97387.88
2023-03-11T12:04:51.954Z,97385.50
2023-03-11T12:07:31.765Z,97385.47
2023-03-11T12:10:23.010Z,97382.72
2023-03-11T12:13:14.098Z,97382.56
2023-03-11T12:15:51.318Z,97374.47
2023-03-11T12:18:26.845Z,97378.47
2023-03-11T12:20:57.153Z,97367.94
2023-03-11T12:23:39.251Z,97365.50
2023-03-11T12:26:18.782Z,97369.28
2023-03-11T12:28:54.874Z,97370.00
2023-03-11T12:31:28.697Z,97363.94
2023-03-11T12:34:00.280Z,97366.81
2023-03-11T12:36:32.578Z,97373.84
2023-03-11T12:39:06.264Z,97366.41
2023-03-11T12:41:41.496Z,97372.22
2023-03-11T12:44:25.047Z,97370.53
2023-03-11T12:47:32.863Z,97375.09
2023-03-11T12:50:49.605Z,97373.56
2023-03-11T12:53:19.416Z,97378.75
2023-03-11T12:56:06.327Z,97385.47
2023-03-11T12:59:08.693Z,97369.88
2023-03-11T13:02:03.743Z,97375.28
2023-03-11T13:04:47.823Z,97383.78
2023-03-11T13:07:44.614Z,97396.47
2023-03-11T13:10:17.617Z,97403.94
2023-03-11T13:12:49.119Z,97401.47
2023-03-11T13:15:32.087Z,97410.47
2023-03-11T13:18:05.407Z,97416.09
2023-03-11T13:21:04.666Z,97430.19
2023-03-11T13:23:35.830Z,97444.34
2023-03-11T13:26:33.460Z,97436.13
2023-03-11T13:29:36.684Z,97439.00
2023-03-11T13:32:29.302Z,97441.59
2023-03-11T13:35:08.256Z,97440.50
2023-03-11T13:37:50.990Z,97429.69
2023-03-11T13:40:30.892Z,97440.19
2023-03-11T13:43:04.263Z,97428.91
2023-03-11T13:45:36.289Z,97437.47
2023-03-11T13:48:09.671Z,97438.06
2023-03-11T13:50:41.848Z,97442.94
2023-03-11T13:53:18.430Z,97443.22
2023-03-11T13:55:47.714Z,97430.09
2023-03-11T13:58:17.796Z,97439.41
2023-03-11T14:00:52.443Z,97446.41
2023-03-11T14:03:23.167Z,97445.81
2023-03-11T14:05:57.735Z,97443.81
2023-03-11T14:08:29.476Z,97447.53
2023-03-11T14:10:59.406Z,97436.34
2023-03-11T14:13:29.476Z,97445.31
2023-03-11T14:16:07.466Z,97436.50
2023-03-11T14:18:38.658Z,97432.84
2023-03-11T14:21:13.719Z,97445.69
2023-03-11T14:23:44.494Z,97440.34
2023-03-11T14:26:16.261Z,97441.56
2023-03-11T14:28:47.676Z,97451.78
2023-03-11T14:31:32.930Z,97451.50
2023-03-11T14:34:04.581Z,97457.16
2023-03-11T14:36:42.412Z,97455.28
2023-03-11T14:39:28.629Z,97453.59
2023-03-11T14:41:59.919Z,97452.53
2023-03-11T14:44:29.814Z,97455.13
2023-03-11T14:47:08.614Z,97455.28
2023-03-11T14:49:37.519Z,97458.34
2023-03-11T14:52:13.235Z,97461.06
2023-03-11T14:54:42.700Z,97463.03
2023-03-11T14:57:20.920Z,97472.75
2023-03-11T14:59:52.514Z,97472.09
2023-03-11T15:02:42.660Z,97467.94
2023-03-11T15:05:18.616Z,97477.53
2023-03-11T15:07:48.444Z,97481.94
2023-03-11T15:10:17.406Z,97482.88
2023-03-11T15:12:46.692Z,97490.53
2023-03-11T15:15:26.523Z,97496.03
2023-03-11T15:17:58.201Z,97499.34
2023-03-11T15:20:31.194Z,97500.25
2023-03-11T15:23:02.131Z,97515.63
2023-03-11T15:25:34.593Z,97518.66
2023-03-11T15:28:21.344Z,97512.41
2023-03-11T15:30:49.489Z,97513.31
2023-03-11T15:33:35.198Z,97521.41
2023-03-11T15:36:03.713Z,97525.81
2023-03-11T15:38:32.163Z,97535.22
2023-03-11T15:41:02.857Z,97550.91
2023-03-11T15:43:33.088Z,97552.38
2023-03-11T15:46:03.764Z,97550.41
2023-03-11T15:48:34.052Z,97555.41
2023-03-11T15:51:03.252Z,97572.09
2023-03-11T15:53:32.257Z,97584.81
2023-03-11T15:56:07.922Z,97605.41
2023-03-11T15:58:37.767Z,97604.13
2023-03-11T16:01:07.580Z,97609.84
2023-03-11T16:03:39.273Z,97609.28
2023-03-11T16:06:08.477Z,97621.41
2023-03-11T16:08:36.812Z,97628.16
2023-03-11T16:11:05.125Z,97623.56
2023-03-11T16:13:33.205Z,97636.31
2023-03-11T16:16:03.510Z,97647.34
2023-03-11T16:18:33.990Z,97668.53
2023-03-11T16:21:12.225Z,97656.00
2023-03-11T16:23:51.096Z,97641.94
2023-03-11T16:26:22.217Z,97659.94
2023-03-11T16:28:51.624Z,97673.84
2023-03-11T16:31:20.305Z,97688.88
2023-03-11T16:33:49.151Z,97701.59
2023-03-11T16:36:19.819Z,97698.66
2023-03-11T16:38:50.241Z,97710.06
2023-03-11T16:41:19.739Z,97718.16
2023-03-11T16:43:48.800Z,97720.06
2023-03-11T16:46:17.217Z,97722.91
2023-03-11T16:48:45.968Z,97724.97
2023-03-11T16:51:14.708Z,97750.69
2023-03-11T16:53:44.322Z,97754.59
2023-03-11T16:56:12.617Z,97750.75
2023-03-11T16:58:40.859Z,97760.53
2023-03-11T17:01:09.062Z,97770.41
2023-03-11T17:03:42.467Z,97774.44
2023-03-11T17:06:11.603Z,97774.34
2023-03-11T17:08:39.949Z,97773.06
2023-03-11T17:11:17.864Z,97780.34
2023-03-11T17:13:46.209Z,97786.94
2023-03-11T17:16:15.736Z,97793.41
2023-03-11T17:18:44.477Z,97800.06
2023-03-11T17:21:15.398Z,97812.50
2023-03-11T17:23:44.027Z,97811.06
2023-03-11T17:26:22.816Z,97811.81
2023-03-11T17:28:51.002Z,97816.19
2023-03-11T17:31:20.311Z,97825.53
2023-03-11T17:33:49.499Z,97827.91
2023-03-11T17:36:19.538Z,97836.91
2023-03-11T17:38:48.665Z,97841.16
2023-03-11T17:41:19.036Z,97851.69
2023-03-11T17:43:50.269Z,97859.78
2023-03-11T17:46:22.805Z,97868.63
2023-03-11T17:48:53.074Z,97869.47
2023-03-11T17:51:22.988Z,97880.50
2023-03-11T17:53:51.382Z,97888.38
2023-03-11T17:56:21.773Z,97896.66
2023-03-11T17:58:51.218Z,97903.41
2023-03-11T18:01:22.618Z,97916.69
2023-03-11T18:03:51.991Z,97929.66
2023-03-11T18:06:21.732Z,97940.31
2023-03-11T18:08:50.257Z,97933.38
2023-03-11T18:11:23.025Z,97940.75
2023-03-11T18:13:51.626Z,97954.31
2023-03-11T18:16:21.658Z,97954.38
2023-03-11T18:18:50.253Z,97950.19
2023-03-11T18:21:20.846Z,97959.59
2023-03-11T18:23:49.668Z,97973.28
2023-03-11T18:26:20.019Z,97976.50
2023-03-11T18:28:49.577Z,97974.72
2023-03-11T18:31:19.169Z,97995.50
2023-03-11T18:33:49.664Z,97994.47
2023-03-11T18:36:20.845Z,97994.53
2023-03-11T18:38:50.651Z,98001.56
2023-03-11T18:41:18.852Z,98011.34
2023-03-11T18:43:47.148Z,98017.97
2023-03-11T18:46:17.874Z,98024.25
2023-03-11T18:48:46.527Z,98018.44
2023-03-11T18:51:15.379Z,98031.66
2023-03-11T18:53:43.630Z,98033.63
2023-03-11T18:56:15.187Z,98052.63
2023-03-11T18:58:43.663Z,98055.38
2023-03-11T19:01:15.263Z,98052.66
2023-03-11T19:03:46.404Z,98068.13
2023-03-11T19:06:14.924Z,98067.34
2023-03-11T19:08:44.150Z,98068.13
2023-03-11T19:11:15.369Z,98075.88
2023-03-11T19:13:47.804Z,98085.16
2023-03-11T19:16:19.733Z,98087.88
2023-03-11T19:18:51.485Z,98084.38
2023-03-11T19:21:20.073Z,98102.94
2023-03-11T19:23:50.281Z,98102.16
2023-03-11T19:26:18.709Z,98112.25
2023-03-11T19:28:46.852Z,98121.09
2023-03-11T19:31:15.346Z,98121.09
2023-03-11T19:33:47.137Z,98125.31
2023-03-11T19:36:17.251Z,98136.53
2023-03-11T19:38:45.488Z,98144.97
2023-03-11T19:41:15.956Z,98139.13
2023-03-11T19:43:44.162Z,98143.75
2023-03-11T19:46:15.225Z,98157.63
2023-03-11T19:48:43.749Z,98166.09
2023-03-11T19:51:13.040Z,98171.44
2023-03-11T19:53:42.854Z,98169.88
2023-03-11T19:56:11.596Z,98186.06
2023-03-11T19:58:39.969Z,98174.03
2023-03-11T20:01:08.138Z,98176.75
2023-03-11T20:03:36.404Z,98180.59
2023-03-11T20:06:08.038Z,98178.28
2023-03-11T20:08:38.357Z,98176.72
2023-03-11T20:11:08.109Z,98177.09
2023-03-11T20:13:38.240Z,98187.13
2023-03-11T20:16:09.418Z,98193.25
2023-03-11T20:18:38.048Z,98198.66
2023-03-11T20:21:08.357Z,98204.44
2023-03-11T20:23:36.974Z,98212.97
2023-03-11T20:26:12.762Z,98234.56
2023-03-11T20:28:41.161Z,98231.06
2023-03-11T20:31:12.550Z,98242.25
2023-03-11T20:33:41.117Z,98244.19
2023-03-11T20:36:15.834Z,98256.53
2023-03-11T20:38:44.374Z,98263.94
2023-03-11T20:41:14.087Z,98268.97
2023-03-11T20:43:42.476Z,98275.53
2023-03-11T20:46:11.671Z,98277.91
2023-03-11T20:48:40.658Z,98279.00
2023-03-11T20:51:13.200Z,98283.59
2023-03-11T20:53:41.504Z,98284.69
2023-03-11T20:56:11.786Z,98292.06
2023-03-11T20:58:42.005Z,98288.19
2023-03-11T21:01:14.689Z,98289.28
2023-03-11T21:03:43.342Z,98293.13
2023-03-11T21:06:18.044Z,98295.00
2023-03-11T21:08:47.024Z,98289.56
2023-03-11T21:11:15.624Z,98289.88
2023-03-11T21:13:45.382Z,98297.16
2023-03-11T21:16:14.189Z,98306.78
2023-03-11T21:18:44.434Z,98292.41
2023-03-11T21:21:13.382Z,98295.50
2023-03-11T21:23:43.837Z,98309.81
2023-03-11T21:26:13.655Z,98310.53
2023-03-11T21:28:46.681Z,98309.72
2023-03-11T21:31:18.540Z,98315.56
2023-03-11T21:33:47.334Z,98318.59
2023-03-11T21:36:17.566Z,98320.13
2023-03-11T21:38:47.978Z,98333.63
2023-03-11T21:41:18.155Z,98341.28
2023-03-11T21:43:46.948Z,98329.16
2023-03-11T21:46:19.645Z,98335.66
2023-03-11T21:48:49.204Z,98331.75
2023-03-11T21:51:20.161Z,98333.56
2023-03-11T21:53:48.655Z,98335.44
2023-03-11T21:56:17.061Z,98347.03
2023-03-11T21:58:45.517Z,98350.50
2023-03-11T22:01:14.432Z,98362.38
2023-03-11T22:03:44.343Z,98356.94
2023-03-11T22:06:14.074Z,98360.72
2023-03-11T22:08:42.910Z,98353.00
2023-03-11T22:11:14.146Z,98347.13
2023-03-11T22:13:42.287Z,98352.84
2023-03-11T22:16:10.449Z,98355.22
2023-03-11T22:18:38.826Z,98363.25
2023-03-11T22:21:10.429Z,98358.66
2023-03-11T22:23:39.179Z,98353.50
2023-03-11T22:26:07.306Z,98364.28
2023-03-11T22:28:35.435Z,98358.88
2023-03-11T22:31:08.586Z,98359.59
2023-03-11T22:33:36.851Z,98350.00
2023-03-11T22:36:06.095Z,98366.59
2023-03-11T22:38:37.272Z,98354.59
2023-03-11T22:41:08.114Z,98365.69
2023-03-11T22:43:36.681Z,98361.44
2023-03-11T22:46:05.798Z,98364.84
2023-03-11T22:48:34.295Z,98369.84
2023-03-11T22:51:02.590Z,98351.00
2023-03-11T22:53:31.257Z,98361.44
2023-03-11T22:56:00.819Z,98359.53
2023-03-11T22:58:29.020Z,98351.00
2023-03-11T23:00:57.223Z,98366.84
2023-03-11T23:03:26.830Z,98369.16
2023-03-11T23:05:55.946Z,98369.53
2023-03-11T23:08:24.109Z,98366.41
2023-03-11T23:10:52.252Z,98372.94
2023-03-11T23:13:21.798Z,98370.91
2023-03-11T23:15:50.350Z,98375.00
2023-03-11T23:18:18.612Z,98379.91
2023-03-11T23:20:46.741Z,98385.19
2023-03-11T23:23:15.152Z,98394.00
2023-03-11T23:25:43.262Z,98390.56
2023-03-11T23:28:11.365Z,98402.13
2023-03-11T23:30:42.925Z,98399.50
2023-03-11T23:33:11.293Z,98402.13
2023-03-11T23:35:41.973Z,98396.75
2023-03-11T23:38:10.727Z,98412.94
2023-03-11T23:40:41.897Z,98396.69
2023-03-11T23:43:10.068Z,98411.38
2023-03-11T23:45:38.239Z,98407.91
2023-03-11T23:48:08.224Z,98422.88
2023-03-11T23:50:36.385Z,98416.34
2023-03-11T23:53:04.501Z,98405.91
2023-03-11T23:55:32.616Z,98412.88
2023-03-11T23:58:00.732Z,98419.47
